createdAt,value
2022-08-24T00:02:23.147Z,17.37
2022-08-24T00:05:28.914Z,17.36
2022-08-24T00:08:37.758Z,17.33
2022-08-24T00:11:43.368Z,17.37
2022-08-24T00:14:49.388Z,17.30
2022-08-24T00:17:55.185Z,17.24
2022-08-24T00:21:04.941Z,17.21
2022-08-24T00:24:16.930Z,17.19
2022-08-24T00:27:22.622Z,17.17
2022-08-24T00:30:29.945Z,17.14
2022-08-24T00:33:36.457Z,17.16
2022-08-24T00:36:42.036Z,17.22
2022-08-24T00:39:50.291Z,17.22
2022-08-24T00:43:00.374Z,17.13
2022-08-24T00:46:21.595Z,16.99
2022-08-24T00:49:38.793Z,17.07
2022-08-24T00:52:52.617Z,17.19
2022-08-24T00:56:08.165Z,17.16
2022-08-24T00:59:22.071Z,17.11
2022-08-24T01:02:40.549Z,17.16
2022-08-24T01:05:47.151Z,17.24
2022-08-24T01:08:56.602Z,17.23
2022-08-24T01:12:06.828Z,17.20
2022-08-24T01:15:15.725Z,17.28
2022-08-24T01:18:38.808Z,17.32
2022-08-24T01:22:01.923Z,17.29
2022-08-24T01:25:11.253Z,17.33
2022-08-24T01:28:27.438Z,17.25
2022-08-24T01:31:39.742Z,17.33
2022-08-24T01:34:45.735Z,17.46
2022-08-24T01:37:54.765Z,17.38
2022-08-24T01:41:07.537Z,17.49
2022-08-24T01:44:14.684Z,17.48
2022-08-24T01:47:27.173Z,17.41
2022-08-24T01:50:33.269Z,17.47
2022-08-24T01:53:39.558Z,17.43
2022-08-24T01:56:49.391Z,17.45
2022-08-24T01:59:57.792Z,17.43
2022-08-24T02:03:19.161Z,17.46
2022-08-24T02:06:32.495Z,17.38
2022-08-24T02:09:39.147Z,17.42
2022-08-24T02:12:59.007Z,17.36
2022-08-24T02:16:08.825Z,17.32
2022-08-24T02:19:15.102Z,17.35
2022-08-24T02:22:20.869Z,17.39
2022-08-24T02:25:30.839Z,17.46
2022-08-24T02:28:40.260Z,17.46
2022-08-24T02:31:46.071Z,17.40
2022-08-24T02:34:54.703Z,17.46
2022-08-24T02:38:06.138Z,17.45
2022-08-24T02:41:14.287Z,17.40
2022-08-24T02:44:24.084Z,17.39
2022-08-24T02:47:38.037Z,17.38
2022-08-24T02:50:49.642Z,17.41
2022-08-24T02:53:56.634Z,17.43
2022-08-24T02:57:03.651Z,17.34
2022-08-24T03:00:20.131Z,17.39
2022-08-24T03:03:36.192Z,17.49
2022-08-24T03:06:42.596Z,17.47
2022-08-24T03:09:51.159Z,17.49
2022-08-24T03:12:59.397Z,17.45
2022-08-24T03:16:10.350Z,17.40
2022-08-24T03:19:17.462Z,17.48
2022-08-24T03:22:30.597Z,17.43
2022-08-24T03:25:41.228Z,17.31
2022-08-24T03:28:47.242Z,17.31
2022-08-24T03:31:58.486Z,17.33
2022-08-24T03:35:15.382Z,17.45
2022-08-24T03:38:21.496Z,17.39
2022-08-24T03:41:28.624Z,17.31
2022-08-24T03:44:38.749Z,17.40
2022-08-24T03:47:49.210Z,17.42
2022-08-24T03:50:54.771Z,17.51
2022-08-24T03:54:03.273Z,17.55
2022-08-24T03:57:09.722Z,17.61
2022-08-24T04:00:17.834Z,17.65
2022-08-24T04:03:40.559Z,17.68
2022-08-24T04:06:48.715Z,17.59
2022-08-24T04:09:55.376Z,17.52
2022-08-24T04:13:05.005Z,17.50
2022-08-24T04:16:17.935Z,17.45
2022-08-24T04:19:28.087Z,17.37
2022-08-24T04:22:43.486Z,17.32
2022-08-24T04:25:53.000Z,17.39
2022-08-24T04:29:08.056Z,17.45
2022-08-24T04:32:25.383Z,17.53
2022-08-24T04:35:41.729Z,17.51
2022-08-24T04:38:48.516Z,17.48
2022-08-24T04:42:25.958Z,17.59
2022-08-24T04:45:34.563Z,17.69
2022-08-24T04:48:42.320Z,17.71
2022-08-24T04:51:50.510Z,17.71
2022-08-24T04:54:56.530Z,17.76
2022-08-24T04:58:14.669Z,17.70
2022-08-24T05:01:27.349Z,17.73
2022-08-24T05:04:33.416Z,17.73
2022-08-24T05:07:42.158Z,17.72
2022-08-24T05:10:51.372Z,17.73
2022-08-24T05:13:59.444Z,17.74
2022-08-24T05:17:05.327Z,17.86
2022-08-24T05:20:15.944Z,17.96
2022-08-24T05:23:26.033Z,17.93
2022-08-24T05:26:33.356Z,18.00
2022-08-24T05:29:39.543Z,18.14
2022-08-24T05:32:45.233Z,18.21
2022-08-24T05:35:51.742Z,18.34
2022-08-24T05:39:06.920Z,18.52
2022-08-24T05:42:16.746Z,18.57
2022-08-24T05:45:27.665Z,18.65
2022-08-24T05:48:35.716Z,18.75
2022-08-24T05:51:43.113Z,18.86
2022-08-24T05:55:00.544Z,18.72
2022-08-24T05:58:06.577Z,18.67
2022-08-24T06:01:15.880Z,18.74
2022-08-24T06:04:21.433Z,18.83
2022-08-24T06:07:27.480Z,18.74
2022-08-24T06:10:43.882Z,18.83
2022-08-24T06:13:55.495Z,18.87
2022-08-24T06:17:03.403Z,18.84
2022-08-24T06:20:16.664Z,18.71
2022-08-24T06:23:24.223Z,18.77
2022-08-24T06:26:52.289Z,18.66
2022-08-24T06:30:02.214Z,18.74
2022-08-24T06:33:22.993Z,18.71
2022-08-24T06:36:30.950Z,18.72
2022-08-24T06:39:36.850Z,18.89
2022-08-24T06:42:45.984Z,19.12
2022-08-24T06:46:01.640Z,19.12
2022-08-24T06:49:15.625Z,19.13
2022-08-24T06:52:21.649Z,19.19
2022-08-24T06:55:34.858Z,19.40
2022-08-24T06:58:43.420Z,19.49
2022-08-24T07:01:54.435Z,19.61
2022-08-24T07:05:00.208Z,19.65
2022-08-24T07:08:28.404Z,19.61
2022-08-24T07:11:35.322Z,19.55
2022-08-24T07:14:48.570Z,19.64
2022-08-24T07:17:58.667Z,19.70
2022-08-24T07:21:08.974Z,19.87
2022-08-24T07:24:20.362Z,19.64
2022-08-24T07:27:29.763Z,19.56
2022-08-24T07:30:38.385Z,19.45
2022-08-24T07:33:52.353Z,19.36
2022-08-24T07:37:00.185Z,19.49
2022-08-24T07:40:10.949Z,19.63
2022-08-24T07:43:17.853Z,19.59
2022-08-24T07:46:26.857Z,19.67
2022-08-24T07:49:37.489Z,19.74
2022-08-24T07:52:45.666Z,19.80
2022-08-24T07:56:09.614Z,19.77
2022-08-24T07:59:24.970Z,20.07
2022-08-24T08:02:36.105Z,20.01
2022-08-24T08:05:43.464Z,19.99
2022-08-24T08:08:51.354Z,20.15
2022-08-24T08:11:57.355Z,20.31
2022-08-24T08:15:03.078Z,20.56
2022-08-24T08:18:11.650Z,20.56
2022-08-24T08:21:31.328Z,20.59
2022-08-24T08:24:42.824Z,20.65
2022-08-24T08:27:53.816Z,20.92
2022-08-24T08:30:59.870Z,20.98
2022-08-24T08:34:11.774Z,21.17
2022-08-24T08:37:23.690Z,21.13
2022-08-24T08:40:58.754Z,21.12
2022-08-24T08:44:23.754Z,21.06
2022-08-24T08:48:16.659Z,21.05
2022-08-24T08:52:01.406Z,21.13
2022-08-24T08:55:36.687Z,21.43
2022-08-24T08:59:17.636Z,21.53
2022-08-24T09:03:14.496Z,21.50
2022-08-24T09:07:14.468Z,21.18
2022-08-24T09:10:54.937Z,21.01
2022-08-24T09:14:46.506Z,21.08
2022-08-24T09:18:20.870Z,21.24
2022-08-24T09:22:06.916Z,21.42
2022-08-24T09:25:35.199Z,21.53
2022-08-24T09:29:09.666Z,21.68
2022-08-24T09:33:04.063Z,21.88
2022-08-24T09:36:16.346Z,21.81
2022-08-24T09:40:15.749Z,21.91
2022-08-24T09:44:24.914Z,22.14
2022-08-24T09:48:15.794Z,22.19
2022-08-24T09:52:09.431Z,22.42
2022-08-24T09:56:05.172Z,22.74
2022-08-24T09:59:42.860Z,23.17
2022-08-24T10:03:36.339Z,23.57
2022-08-24T10:07:08.285Z,23.71
2022-08-24T10:10:43.741Z,23.48
2022-08-24T10:14:06.044Z,23.68
2022-08-24T10:17:33.431Z,23.83
2022-08-24T10:21:06.457Z,24.00
2022-08-24T10:24:48.751Z,23.94
2022-08-24T10:28:16.243Z,23.97
2022-08-24T10:31:34.412Z,23.80
2022-08-24T10:35:17.690Z,23.52
2022-08-24T10:38:49.964Z,23.38
2022-08-24T10:42:51.251Z,23.49
2022-08-24T10:46:33.565Z,23.45
2022-08-24T10:50:30.891Z,23.81
2022-08-24T10:53:38.550Z,23.89
2022-08-24T10:56:56.141Z,23.51
2022-08-24T11:00:12.138Z,23.55
2022-08-24T11:03:28.248Z,23.62
2022-08-24T11:07:09.161Z,23.53
2022-08-24T11:10:30.644Z,23.71
2022-08-24T11:13:37.838Z,23.87
2022-08-24T11:16:48.172Z,23.98
2022-08-24T11:19:56.410Z,24.03
2022-08-24T11:23:17.585Z,23.90
2022-08-24T11:26:27.647Z,24.19
2022-08-24T11:30:10.759Z,24.61
2022-08-24T11:33:38.549Z,24.74
2022-08-24T11:36:45.928Z,24.77
2022-08-24T11:39:54.187Z,25.10
2022-08-24T11:43:40.634Z,25.25
2022-08-24T11:47:07.896Z,26.05
2022-08-24T11:50:30.259Z,26.32
2022-08-24T11:54:00.751Z,25.81
2022-08-24T11:57:19.644Z,26.56
2022-08-24T12:00:31.189Z,26.85
2022-08-24T12:04:20.139Z,27.60
2022-08-24T12:07:50.971Z,28.01
2022-08-24T12:11:10.548Z,27.83
2022-08-24T12:14:40.885Z,27.93
2022-08-24T12:18:01.168Z,27.93
2022-08-24T12:21:12.686Z,28.08
2022-08-24T12:24:26.637Z,27.91
2022-08-24T12:27:37.783Z,27.29
2022-08-24T12:30:48.478Z,27.05
2022-08-24T12:34:02.380Z,26.25
2022-08-24T12:37:22.325Z,26.20
2022-08-24T12:40:40.237Z,25.96
2022-08-24T12:43:54.621Z,25.91
2022-08-24T12:47:04.084Z,25.96
2022-08-24T12:50:25.330Z,26.15
2022-08-24T12:54:16.679Z,26.41
2022-08-24T13:01:44.744Z,26.37
2022-08-24T13:05:15.459Z,26.62
2022-08-24T13:08:38.509Z,26.21
2022-08-24T13:11:46.842Z,26.56
2022-08-24T13:14:56.899Z,26.97
2022-08-24T13:18:51.698Z,26.72
2022-08-24T13:22:26.424Z,26.42
2022-08-24T13:25:58.082Z,26.52
2022-08-24T13:29:06.723Z,26.74
2022-08-24T13:32:29.475Z,26.53
2022-08-24T13:35:57.315Z,26.74
2022-08-24T13:39:44.741Z,26.79
2022-08-24T13:43:20.646Z,26.42
2022-08-24T13:46:50.023Z,26.50
2022-08-24T13:50:13.093Z,26.78
2022-08-24T13:54:19.911Z,26.82
2022-08-24T13:57:44.059Z,26.56
2022-08-24T14:01:21.882Z,26.54
2022-08-24T14:04:50.365Z,26.67
2022-08-24T14:08:25.666Z,26.61
2022-08-24T14:12:07.378Z,26.43
2022-08-24T14:15:47.543Z,26.45
2022-08-24T14:19:15.535Z,26.41
2022-08-24T14:22:39.533Z,26.29
2022-08-24T14:26:20.679Z,25.69
2022-08-24T14:29:39.678Z,25.88
2022-08-24T14:33:17.029Z,25.81
2022-08-24T14:36:49.635Z,25.94
2022-08-24T14:40:18.936Z,25.71
2022-08-24T14:43:37.638Z,25.73
2022-08-24T14:46:57.330Z,25.64
2022-08-24T14:50:19.033Z,25.67
2022-08-24T14:53:59.610Z,25.46
2022-08-24T14:57:31.752Z,25.24
2022-08-24T15:01:10.955Z,25.35
2022-08-24T15:04:42.084Z,24.97
2022-08-24T15:08:02.125Z,25.11
2022-08-24T15:11:15.467Z,25.12
2022-08-24T15:14:41.288Z,25.26
2022-08-24T15:18:13.584Z,25.10
2022-08-24T15:21:43.391Z,24.92
2022-08-24T15:25:06.227Z,25.16
2022-08-24T15:28:17.718Z,25.21
2022-08-24T15:31:36.458Z,25.12
2022-08-24T15:34:50.280Z,25.13
2022-08-24T15:37:56.465Z,24.76
2022-08-24T15:41:15.425Z,24.67
2022-08-24T15:44:29.072Z,24.68
2022-08-24T15:47:39.353Z,24.69
2022-08-24T15:50:49.696Z,24.66
2022-08-24T15:53:55.320Z,24.55
2022-08-24T15:57:08.450Z,24.66
2022-08-24T16:00:44.716Z,24.58
2022-08-24T16:03:55.440Z,24.35
2022-08-24T16:07:01.041Z,24.48
2022-08-24T16:10:12.411Z,24.48
2022-08-24T16:13:35.844Z,24.39
2022-08-24T16:16:46.784Z,24.42
2022-08-24T16:19:57.034Z,24.41
2022-08-24T16:23:17.343Z,24.43
2022-08-24T16:26:28.586Z,24.31
2022-08-24T16:29:56.345Z,24.29
2022-08-24T16:33:06.072Z,24.18
2022-08-24T16:36:16.694Z,23.93
2022-08-24T16:39:27.078Z,23.83
2022-08-24T16:42:34.809Z,23.62
2022-08-24T16:45:47.150Z,23.56
2022-08-24T16:48:54.352Z,23.71
2022-08-24T16:52:00.060Z,23.56
2022-08-24T16:55:05.964Z,23.66
2022-08-24T16:58:11.660Z,23.58
2022-08-24T17:01:26.384Z,23.41
2022-08-24T17:04:32.030Z,23.39
2022-08-24T17:07:38.126Z,23.28
2022-08-24T17:10:44.143Z,23.18
2022-08-24T17:13:50.705Z,23.21
2022-08-24T17:17:07.954Z,23.14
2022-08-24T17:20:21.057Z,23.04
2022-08-24T17:23:26.797Z,22.91
2022-08-24T17:26:34.944Z,22.82
2022-08-24T17:29:49.760Z,22.73
2022-08-24T17:33:05.976Z,22.76
2022-08-24T17:36:32.327Z,22.64
2022-08-24T17:39:38.895Z,22.60
2022-08-24T17:42:51.168Z,22.56
2022-08-24T17:46:00.036Z,22.44
2022-08-24T17:49:11.765Z,22.43
2022-08-24T17:52:17.863Z,22.38
2022-08-24T17:55:24.984Z,22.35
2022-08-24T17:58:31.900Z,22.35
2022-08-24T18:01:41.316Z,22.01
2022-08-24T18:04:50.302Z,21.96
2022-08-24T18:07:59.001Z,21.96
2022-08-24T18:11:04.481Z,21.97
2022-08-24T18:14:10.378Z,21.96
2022-08-24T18:17:23.000Z,21.90
2022-08-24T18:20:42.003Z,21.87
2022-08-24T18:23:48.013Z,21.81
2022-08-24T18:26:54.673Z,21.73
2022-08-24T18:30:07.145Z,21.72
2022-08-24T18:33:14.160Z,21.71
2022-08-24T18:36:22.289Z,21.63
2022-08-24T18:39:27.825Z,21.55
2022-08-24T18:42:34.868Z,21.42
2022-08-24T18:45:41.760Z,21.41
2022-08-24T18:48:47.449Z,21.25
2022-08-24T18:51:56.092Z,21.27
2022-08-24T18:55:09.016Z,21.11
2022-08-24T18:58:19.867Z,21.06
2022-08-24T19:01:28.463Z,21.03
2022-08-24T19:04:34.649Z,20.99
2022-08-24T19:07:46.804Z,20.97
2022-08-24T19:10:56.086Z,20.91
2022-08-24T19:14:11.590Z,20.85
2022-08-24T19:17:18.067Z,20.78
2022-08-24T19:20:23.696Z,20.71
2022-08-24T19:23:39.287Z,20.66
2022-08-24T19:26:44.863Z,20.52
2022-08-24T19:29:57.725Z,20.41
2022-08-24T19:33:26.135Z,20.35
2022-08-24T19:36:39.606Z,20.33
2022-08-24T19:42:56.754Z,19.97
2022-08-24T19:46:02.798Z,19.96
2022-08-24T19:49:09.102Z,19.99
2022-08-24T19:52:15.547Z,19.99
2022-08-24T19:55:24.393Z,20.07
2022-08-24T19:58:39.989Z,19.99
2022-08-24T20:01:45.592Z,19.78
2022-08-24T20:04:52.042Z,19.71
2022-08-24T20:07:59.740Z,19.70
2022-08-24T20:11:08.471Z,19.55
2022-08-24T20:14:14.100Z,19.52
2022-08-24T20:17:19.753Z,19.39
2022-08-24T20:20:35.969Z,19.28
2022-08-24T20:23:41.779Z,19.29
2022-08-24T20:26:50.538Z,19.30
2022-08-24T20:29:59.050Z,19.31
2022-08-24T20:33:04.756Z,19.31
2022-08-24T20:36:25.912Z,19.14
2022-08-24T20:39:31.586Z,19.19
2022-08-24T20:42:41.685Z,19.21
2022-08-24T20:45:47.804Z,19.22
2022-08-24T20:48:55.745Z,19.20
2022-08-24T20:52:03.166Z,19.14
2022-08-24T20:55:10.219Z,19.06
2022-08-24T20:58:24.140Z,18.99
2022-08-24T21:01:29.776Z,18.90
2022-08-24T21:04:35.309Z,18.82
2022-08-24T21:07:47.826Z,18.71
2022-08-24T21:10:53.322Z,18.60
2022-08-24T21:14:09.440Z,18.48
2022-08-24T21:17:14.997Z,18.37
2022-08-24T21:20:23.328Z,18.25
2022-08-24T21:23:28.986Z,18.28
2022-08-24T21:26:37.135Z,18.18
2022-08-24T21:29:45.252Z,18.05
2022-08-24T21:33:03.814Z,18.00
2022-08-24T21:36:10.394Z,18.08
2022-08-24T21:39:16.380Z,18.14
2022-08-24T21:42:22.226Z,18.23
2022-08-24T21:45:31.971Z,18.24
2022-08-24T21:48:37.696Z,18.22
2022-08-24T21:51:43.535Z,18.12
2022-08-24T21:54:49.167Z,18.07
2022-08-24T21:57:55.373Z,18.05
2022-08-24T22:01:03.700Z,17.99
2022-08-24T22:04:09.750Z,17.89
2022-08-24T22:07:21.453Z,17.79
2022-08-24T22:10:28.714Z,17.76
2022-08-24T22:13:35.006Z,17.75
2022-08-24T22:16:43.273Z,17.76
2022-08-24T22:19:48.854Z,17.78
2022-08-24T22:22:55.213Z,17.76
2022-08-24T22:26:00.724Z,17.72
2022-08-24T22:29:10.098Z,17.75
2022-08-24T22:32:18.302Z,17.80
2022-08-24T22:35:24.104Z,17.76
2022-08-24T22:38:29.626Z,17.78
2022-08-24T22:41:35.239Z,17.76
2022-08-24T22:44:40.746Z,17.75
2022-08-24T22:47:48.913Z,17.78
2022-08-24T22:50:54.415Z,17.89
2022-08-24T22:54:00.530Z,17.82
2022-08-24T22:57:06.965Z,17.74
2022-08-24T23:00:15.041Z,17.70
2022-08-24T23:03:25.332Z,17.65
2022-08-24T23:06:31.993Z,17.64
2022-08-24T23:09:44.939Z,17.62
2022-08-24T23:12:51.238Z,17.61
2022-08-24T23:15:56.803Z,17.63
2022-08-24T23:19:17.532Z,17.65
2022-08-24T23:22:24.206Z,17.64
2022-08-24T23:25:31.472Z,17.60
2022-08-24T23:28:37.392Z,17.66
2022-08-24T23:31:43.706Z,17.63
2022-08-24T23:34:53.282Z,17.59
2022-08-24T23:37:58.879Z,17.63
2022-08-24T23:41:09.743Z,17.67
2022-08-24T23:44:21.026Z,17.55
2022-08-24T23:47:26.628Z,17.55
2022-08-24T23:50:38.711Z,17.55
2022-08-24T23:53:48.084Z,17.47
2022-08-24T23:56:56.174Z,17.42
